Terminal Aerodrome Forecast
Issued by NWS Knoxville/Tri Cities, TN

Home | Current Version | Previous Version | Text Only | Print | Product List | Glossary On
Versions: 1 2 3 4 5 6 7 8 9 10 11 12 13 14 15 16 17 18 19 20 21 22 23 24 25 26 27 28 29 30 31 32 33 34 35
000
FTUS44 KMRX 242340
TAFTRI
TAF
KTRI 242340Z 2500/2524 21009G18KT P6SM VCSH SCT025 BKN040
      TEMPO 2500/2502 5SM SHRA BKN020
     FM250200 25007KT P6SM VCSH OVC015
      TEMPO 2502/2505 5SM SHRA BR SCT015 BKN025
     FM250600 25005KT P6SM OVC015
     FM252200 VRB03KT P6SM SCT020=

USA.gov is the U.S. government's official web portal to all federal, state and local government web resources and services.